Lostine, OR

4:15 PM PDT on May 04, 2015 (GMT -0700)
Shureshot Upholstery | | Change Station
CLOSE
Current Station
Personal Weather Station
Location: Lostine, OR
Elevation: 3363 ft
Nearby Weather Stations

Elev 3363 ft 45.49 °N, 117.43 °W | Updated 58 seconds ago

Clear
Clear
75.5 °F
Feels Like 77 °F
N
3.0
Wind Variable Wind from SSW
Gusts 5.0 mph

Today
High -- | Low -- °F
--% Chance of Precip.
Yesterday
High -- | Low -- °F
Precip. -- in
5:33 AM 8:00 PM
Full, 99% visible
Pressure 29.76 in
Visibility 10.0 miles
Clouds Clear
Heat Index 77 °F
Dew Point 35 °F
Humidity 23%
Rainfall 0.00 in
Snow Depth Not available.
UV 6 out of 12
Pollen 9.80 out of 12
Air Quality Not available.
Flu Activity Regional
METAR KLGD 042255Z AUTO 14005KT 10SM CLR 26/02 A2976 RMK AO1

More Conditions Fewer Conditions

Pressure 29.76 in
Visibility 10.0 miles
Clouds Clear
Heat Index 77 °F
Dew Point 35 °F
Humidity 23%
Rainfall 0.00 in
Snow Depth Not available.
UV 6 out of 12
Pollen 9.80 out of 12
Air Quality Not available.
Flu Activity Regional
METAR KLGD 042255Z AUTO 14005KT 10SM CLR 26/02 A2976 RMK AO1

More Conditions Fewer Conditions

Nepal has a long way to go to dig out and rebuild from a devastating earthquake. We have teamed up with several charities and organizations to make contributing to the relief effort as easy as possible.
How you can help: Portlight Strategies | Red Cross

10-Day Weather Forecast

Almanac

Astronomy

May. 04, 2015 Rise Set
Actual Time
Civil Twilight
Nautical Twilight
Astronomical Twilight
Moon
Length of Visible Light
Length of Day
Tomorrow will be .
, % of the Moon is Illuminated

Today's Extremes

State Highs State Lows

Community

WunderPhotos

Upload Photos

1,818,726 photos uploaded!

WunderBlogs® & News

Nearby

Air Quality

  Air Quality AQ Index Pollutant
Not available.

Snow Depth

Station Depth Elevation

Earthquake Activity

City Distance Mag. Time & Date
Minimum magnitude displayed is 2.5.

Coastal Water Temperatures

Place Temperature

Stations

Nearby Weather Stations

Station Location Temp. Windchill Dew Point Humidity Wind Precip. Elev Updated Type